Time;durP1;ratioP1;P1;durP2;ratioP2;P2;SDS_P1;SDS_P2;PMS_P1;PMS_P2;Temp;Humidity;BMP_temperature;BMP_pressure;BME280_temperature;BME280_humidity;BME280_pressure;Samples;Min_cycle;Max_cycle;Signal;HPM_P1;HPM_P2
2023/01/30 00:00:25;;;;;;;23.42;7.35;;;;;;;;;;5105141;27;20027;-82
2023/01/30 00:02:51;;;;;;;17.92;5.55;;;;;;;;;;5111054;28;20491;-83
2023/01/30 00:05:17;;;;;;;14.15;5.63;;;;;;;;;;5111256;28;20027;-83
2023/01/30 00:07:43;;;;;;;20.48;6.05;;;;;;;;;;5111407;27;20079;-84
2023/01/30 00:10:10;;;;;;;19.05;6.10;;;;;;;;;;5111450;27;20447;-84
2023/01/30 00:12:36;;;;;;;19.15;5.63;;;;;;;;;;5117391;27;20039;-84
2023/01/30 00:15:02;;;;;;;17.10;6.10;;;;;;;;;;5128290;27;20031;-81
2023/01/30 00:17:28;;;;;;;18.42;5.95;;;;;;;;;;5108483;28;20418;-82
2023/01/30 00:19:53;;;;;;;18.65;6.15;;;;;;;;;;5117981;27;20032;-82
2023/01/30 00:22:19;;;;;;;17.65;5.88;;;;;;;;;;5110862;27;20028;-81
2023/01/30 00:24:45;;;;;;;20.92;6.15;;;;;;;;;;5111149;27;20094;-81
2023/01/30 00:27:12;;;;;;;16.95;5.93;;;;;;;;;;5113092;27;20114;-81
2023/01/30 00:29:38;;;;;;;24.58;5.72;;;;;;;;;;5108979;28;21382;-81
2023/01/30 00:32:04;;;;;;;15.15;5.82;;;;;;;;;;5100572;28;20059;-81
2023/01/30 00:34:30;;;;;;;22.95;7.18;;;;;;;;;;5112632;27;20106;-82
2023/01/30 00:36:56;;;;;;;16.70;5.32;;;;;;;;;;5119496;27;20069;-82
2023/01/30 00:39:22;;;;;;;22.15;7.05;;;;;;;;;;5095481;28;20423;-82
2023/01/30 00:47:18;;;;;;;18.17;5.53;;;;;;;;;;5110797;28;20089;-84
2023/01/30 00:49:44;;;;;;;21.20;6.00;;;;;;;;;;5102917;27;20024;-84
2023/01/30 00:52:10;;;;;;;20.23;7.45;;;;;;;;;;5110964;28;20434;-85
2023/01/30 00:54:36;;;;;;;17.15;5.72;;;;;;;;;;5110956;28;20031;-85
2023/01/30 00:57:03;;;;;;;27.67;8.50;;;;;;;;;;5112164;28;20056;-84
2023/01/30 00:59:29;;;;;;;20.05;6.30;;;;;;;;;;5106653;28;20467;-82
2023/01/30 01:01:55;;;;;;;24.33;7.45;;;;;;;;;;5111504;28;20038;-83
2023/01/30 01:04:21;;;;;;;18.80;6.40;;;;;;;;;;5108158;27;20043;-83
2023/01/30 01:06:47;;;;;;;20.17;6.18;;;;;;;;;;5112241;27;20044;-84
2023/01/30 01:09:13;;;;;;;22.83;6.82;;;;;;;;;;5110871;28;20052;-84
2023/01/30 01:11:39;;;;;;;16.73;6.05;;;;;;;;;;5109629;27;20031;-84
2023/01/30 01:14:05;;;;;;;17.67;5.93;;;;;;;;;;5097769;28;20032;-84
2023/01/30 01:16:32;;;;;;;18.80;6.15;;;;;;;;;;5110738;27;20032;-84
2023/01/30 01:18:58;;;;;;;17.85;5.63;;;;;;;;;;5114353;27;20064;-85
2023/01/30 01:21:24;;;;;;;24.17;6.55;;;;;;;;;;5117056;27;20047;-85
2023/01/30 01:23:51;;;;;;;17.20;6.72;;;;;;;;;;5115207;27;20032;-84
2023/01/30 01:26:17;;;;;;;21.55;7.57;;;;;;;;;;5113259;27;20024;-84
2023/01/30 01:28:43;;;;;;;18.20;7.38;;;;;;;;;;5112745;28;20108;-83
2023/01/30 01:31:10;;;;;;;20.88;7.03;;;;;;;;;;5101066;28;20529;-83
2023/01/30 01:33:36;;;;;;;23.25;7.55;;;;;;;;;;5105943;27;20027;-84
2023/01/30 01:36:02;;;;;;;27.10;7.38;;;;;;;;;;5093449;28;20019;-85
2023/01/30 01:38:28;;;;;;;19.42;7.07;;;;;;;;;;5112606;28;20037;-83
2023/01/30 01:41:08;;;;;;;19.83;7.53;;;;;;;;;;5120143;27;20382;-84
2023/01/30 01:43:58;;;;;;;23.63;7.30;;;;;;;;;;5112103;27;20036;-85
2023/01/30 01:46:27;;;;;;;25.65;7.72;;;;;;;;;;5089685;28;20019;-81
2023/01/30 01:48:56;;;;;;;18.40;6.75;;;;;;;;;;5092666;28;20058;-85
2023/01/30 01:51:28;;;;;;;26.55;7.05;;;;;;;;;;5102363;28;20043;-85
2023/01/30 01:53:57;;;;;;;19.27;6.20;;;;;;;;;;5120671;27;20540;-84
2023/01/30 01:56:23;;;;;;;26.77;6.93;;;;;;;;;;5128220;27;20479;-85
2023/01/30 01:58:56;;;;;;;26.92;6.47;;;;;;;;;;5109738;28;20046;-83
2023/01/30 02:01:22;;;;;;;27.05;6.07;;;;;;;;;;5113797;28;20027;-83
2023/01/30 02:03:50;;;;;;;27.60;5.93;;;;;;;;;;5106936;28;20047;-84
2023/01/30 02:06:16;;;;;;;22.73;6.63;;;;;;;;;;5092019;28;20413;-84
2023/01/30 02:08:45;;;;;;;20.85;6.18;;;;;;;;;;5104803;28;20100;-84
2023/01/30 02:11:20;;;;;;;33.55;6.60;;;;;;;;;;5103172;28;20540;-84
2023/01/30 02:13:47;;;;;;;32.67;6.80;;;;;;;;;;5110623;28;20028;-83
2023/01/30 02:16:13;;;;;;;37.67;7.05;;;;;;;;;;5112172;28;20134;-83
2023/01/30 02:18:41;;;;;;;33.20;7.50;;;;;;;;;;5116062;27;20031;-83
2023/01/30 02:21:19;;;;;;;30.98;5.63;;;;;;;;;;5126254;27;20472;-83
2023/01/30 02:23:51;;;;;;;32.33;6.03;;;;;;;;;;5116756;27;20034;-82
2023/01/30 02:26:33;;;;;;;33.00;6.05;;;;;;;;;;5114503;28;20471;-83
2023/01/30 02:28:59;;;;;;;25.60;5.68;;;;;;;;;;5119309;27;20104;-83
2023/01/30 02:31:28;;;;;;;30.88;5.28;;;;;;;;;;5115634;27;20024;-82
2023/01/30 02:34:05;;;;;;;25.77;5.63;;;;;;;;;;5111363;27;20066;-80
2023/01/30 02:36:34;;;;;;;30.88;5.90;;;;;;;;;;5111145;28;20118;-81
2023/01/30 02:39:16;;;;;;;28.23;6.05;;;;;;;;;;5105543;27;20776;-82
2023/01/30 02:41:45;;;;;;;30.88;6.35;;;;;;;;;;5106298;27;20078;-82
2023/01/30 02:44:16;;;;;;;31.55;5.47;;;;;;;;;;5114550;27;20039;-82
2023/01/30 02:46:43;;;;;;;33.85;6.25;;;;;;;;;;5119790;27;20055;-82
2023/01/30 02:49:27;;;;;;;27.88;4.82;;;7.20;99.90;;;;;;5092517;28;20036;-80
2023/01/30 02:51:53;;;;;;;26.70;6.22;;;;;;;;;;5107002;27;20093;-82
2023/01/30 02:54:19;;;;;;;31.85;6.00;;;;;;;;;;5124327;27;20029;-80
2023/01/30 02:56:51;;;;;;;30.63;7.38;;;;;;;;;;5114091;28;20512;-81
2023/01/30 02:59:21;;;;;;;26.70;6.93;;;;;;;;;;5111103;27;20099;-80
2023/01/30 03:01:59;;;;;;;43.70;6.30;;;;;;;;;;5115547;27;20037;-82
2023/01/30 03:04:27;;;;;;;28.10;5.35;;;;;;;;;;5111674;27;20360;-81
2023/01/30 03:07:06;;;;;;;29.40;6.43;;;;;;;;;;5112917;27;20063;-83
2023/01/30 03:10:11;;;;;;;31.85;5.60;;;6.90;99.90;;;;;;5123141;27;20054;-82
2023/01/30 03:12:40;;;;;;;32.25;6.72;;;;;;;;;;5095899;27;20054;-82
2023/01/30 03:15:26;;;;;;;23.70;4.75;;;;;;;;;;5112371;27;20025;-82
2023/01/30 03:17:52;;;;;;;23.13;5.50;;;;;;;;;;5113832;28;20053;-81
2023/01/30 03:20:19;;;;;;;29.02;5.22;;;;;;;;;;5111245;27;20154;-82
2023/01/30 03:22:45;;;;;;;32.53;4.50;;;;;;;;;;5113149;28;20078;-81
2023/01/30 03:25:14;;;;;;;26.38;5.53;;;;;;;;;;5111908;28;20035;-81
2023/01/30 03:27:41;;;;;;;28.70;4.93;;;;;;;;;;5114233;27;20124;-81
2023/01/30 03:30:08;;;;;;;24.80;4.80;;;;;;;;;;5092711;28;20138;-82
2023/01/30 03:32:34;;;;;;;26.38;4.90;;;;;;;;;;5110793;28;20519;-81
2023/01/30 03:35:00;;;;;;;26.65;4.45;;;;;;;;;;5112895;28;20114;-81
2023/01/30 03:37:26;;;;;;;31.67;5.65;;;;;;;;;;5110901;27;20036;-81
2023/01/30 03:39:53;;;;;;;29.52;4.03;;;;;;;;;;5120328;27;20034;-81
2023/01/30 03:42:19;;;;;;;25.63;4.13;;;;;;;;;;5111031;27;20031;-82
2023/01/30 03:44:45;;;;;;;25.63;4.47;;;;;;;;;;5115116;27;20474;-82
2023/01/30 03:47:11;;;;;;;35.22;5.25;;;;;;;;;;5095831;28;20040;-82
2023/01/30 03:49:37;;;;;;;27.98;5.00;;;;;;;;;;5095389;28;20067;-82
2023/01/30 03:52:03;;;;;;;29.02;4.55;;;;;;;;;;5119315;27;20038;-82
2023/01/30 03:54:29;;;;;;;37.40;5.78;;;;;;;;;;5111992;27;20044;-81
2023/01/30 03:56:55;;;;;;;32.75;6.57;;;;;;;;;;5093104;27;20111;-81
2023/01/30 03:59:21;;;;;;;22.77;5.57;;;;;;;;;;5111754;28;20027;-82
2023/01/30 04:01:47;;;;;;;21.35;5.03;;;;;;;;;;5112245;27;20039;-81
2023/01/30 04:04:13;;;;;;;31.63;5.35;;;;;;;;;;5117124;27;20515;-83
2023/01/30 04:06:39;;;;;;;27.30;4.88;;;;;;;;;;5112495;28;20051;-81
2023/01/30 04:09:05;;;;;;;26.55;4.65;;;;;;;;;;5115101;27;20063;-82
2023/01/30 04:11:31;;;;;;;32.05;5.10;;;;;;;;;;5110879;28;20085;-82
2023/01/30 04:13:57;;;;;;;23.67;3.90;;;;;;;;;;5110707;28;20372;-82
2023/01/30 04:16:24;;;;;;;24.50;3.85;;;;;;;;;;5113448;28;20038;-82
2023/01/30 04:18:50;;;;;;;27.30;4.70;;;;;;;;;;5112477;27;20072;-82
2023/01/30 04:21:17;;;;;;;29.05;4.90;;;;;;;;;;5112369;28;20028;-82
2023/01/30 04:23:43;;;;;;;28.27;4.65;;;;;;;;;;5095867;28;20024;-82
2023/01/30 04:26:09;;;;;;;22.85;3.97;;;;;;;;;;5112709;28;20028;-82
2023/01/30 04:28:35;;;;;;;37.20;5.82;;;;;;;;;;5093065;28;20032;-81
2023/01/30 04:31:01;;;;;;;27.25;4.43;;;;;;;;;;5110702;27;20027;-83
2023/01/30 04:33:27;;;;;;;34.05;5.05;;;;;;;;;;5107941;27;20031;-82
2023/01/30 04:35:54;;;;;;;28.67;5.25;;;;;;;;;;5113155;28;20036;-83
2023/01/30 04:38:20;;;;;;;27.13;6.00;;;;;;;;;;5112056;27;20023;-81
2023/01/30 04:40:50;;;;;;;23.60;3.75;;;;;;;;;;5112835;27;20457;-82
2023/01/30 04:43:16;;;;;;;39.58;5.95;;;;;;;;;;5107542;27;20062;-82
2023/01/30 04:45:42;;;;;;;34.63;4.10;;;;;;;;;;5113232;27;20032;-82
2023/01/30 04:48:08;;;;;;;33.25;6.25;;;;;;;;;;5093015;28;20118;-82
2023/01/30 04:50:34;;;;;;;29.83;4.95;;;;;;;;;;5079261;28;20111;-82
2023/01/30 04:53:00;;;;;;;26.55;5.53;;;;;;;;;;5107012;27;20036;-83
2023/01/30 04:55:26;;;;;;;31.40;5.97;;;;;;;;;;5110753;28;20062;-83
2023/01/30 04:57:52;;;;;;;41.92;4.60;;;;;;;;;;5110679;28;20040;-82
2023/01/30 05:00:19;;;;;;;21.67;3.97;;;;;;;;;;5102773;27;20080;-81
2023/01/30 05:02:45;;;;;;;31.20;4.28;;;;;;;;;;5082771;27;20034;-83
2023/01/30 05:05:10;;;;;;;31.30;5.60;;;;;;;;;;5087773;28;20027;-74
2023/01/30 05:07:36;;;;;;;36.15;5.13;;;;;;;;;;5089492;28;20188;-81
2023/01/30 05:10:03;;;;;;;23.60;4.57;;;;;;;;;;5085180;28;20613;-83
2023/01/30 05:12:29;;;;;;;37.45;4.63;;;;;;;;;;5084524;28;20468;-81
2023/01/30 05:14:55;;;;;;;22.98;4.43;;;;;;;;;;5085612;28;20034;-81
2023/01/30 05:17:21;;;;;;;32.95;5.55;;;;;;;;;;5089931;28;20042;-81
2023/01/30 05:19:47;;;;;;;38.78;6.15;;;;;;;;;;5095407;28;20047;-82
2023/01/30 05:22:13;;;;;;;30.38;4.55;;;;;;;;;;5082936;28;20036;-83
2023/01/30 05:24:39;;;;;;;38.95;4.72;;;;;;;;;;5082178;28;20465;-82
2023/01/30 05:27:05;;;;;;;26.88;4.85;;;;;;;;;;5094647;28;20038;-79
2023/01/30 05:29:31;;;;;;;39.70;6.43;;;;;;;;;;5076799;28;20091;-83
2023/01/30 05:31:57;;;;;;;32.83;4.90;;;;;;;;;;5081923;28;20134;-81
2023/01/30 05:34:23;;;;;;;28.15;4.38;;;;;;;;;;5097656;28;20035;-82
2023/01/30 05:36:49;;;;;;;33.33;5.82;;;;;;;;;;5097763;28;20051;-83
2023/01/30 05:39:15;;;;;;;28.70;5.05;;;;;;;;;;5095350;28;20039;-77
2023/01/30 05:41:41;;;;;;;33.35;4.97;;;;;;;;;;5089427;28;20098;-81
2023/01/30 05:44:07;;;;;;;27.25;5.45;;;;;;;;;;5099672;28;20166;-77
2023/01/30 05:46:33;;;;;;;30.40;5.80;;;;;;;;;;5075903;28;20039;-80
2023/01/30 05:48:59;;;;;;;29.92;4.85;;;;;;;;;;5096559;28;20036;-82
2023/01/30 05:51:26;;;;;;;25.27;4.43;;;;;;;;;;5095840;28;20039;-82
2023/01/30 05:53:52;;;;;;;34.45;4.82;;;;;;;;;;5091314;28;20107;-82
2023/01/30 05:56:19;;;;;;;27.17;4.28;;;;;;;;;;5108185;28;20028;-82
2023/01/30 05:58:52;;;;;;;34.30;5.28;;;;;;;;;;5090325;28;20063;-81
2023/01/30 06:01:18;;;;;;;37.83;4.15;;;;;;;;;;5087609;28;20033;-78
2023/01/30 06:03:44;;;;;;;44.58;7.10;;;;;;;;;;5092597;28;21472;-78
2023/01/30 06:06:11;;;;;;;34.88;4.30;;;;;;;;;;5079874;28;20057;-79
2023/01/30 06:08:37;;;;;;;27.98;4.72;;;;;;;;;;5084679;28;20052;-80
2023/01/30 06:11:07;;;;;;;37.03;5.03;;;;;;;;;;5077052;28;20067;-78
2023/01/30 06:13:34;;;;;;;32.63;4.40;;;;;;;;;;5080428;28;20058;-79
2023/01/30 06:16:00;;;;;;;33.53;5.25;;;;;;;;;;5084272;28;20085;-81
2023/01/30 06:18:26;;;;;;;29.90;4.43;;;;;;;;;;5110641;28;20039;-83
2023/01/30 06:20:53;;;;;;;22.30;3.50;;;;;;;;;;5092805;28;20055;-82
2023/01/30 06:23:19;;;;;;;32.00;6.05;;;;;;;;;;5090992;28;20033;-83
2023/01/30 06:25:45;;;;;;;30.30;5.63;;;;;;;;;;5089806;28;20016;-81
2023/01/30 06:28:12;;;;;;;35.35;6.15;;;;;;;;;;5085271;28;20039;-77
2023/01/30 06:30:38;;;;;;;35.60;5.25;;;;;;;;;;5084768;28;20524;-76
2023/01/30 06:33:04;;;;;;;23.20;4.18;;;;;;;;;;5082493;28;20021;-78
2023/01/30 06:35:30;;;;;;;36.78;6.75;;;;;;;;;;5089911;28;20043;-79
2023/01/30 06:37:56;;;;;;;24.35;4.20;;;;;;;;;;5088295;28;20028;-79
2023/01/30 06:40:22;;;;;;;30.83;4.15;;;;;;;;;;5091194;28;20553;-77
2023/01/30 06:42:48;;;;;;;39.95;4.97;;;;;;;;;;5093557;28;20034;-81
2023/01/30 06:45:16;;;;;;;34.65;5.93;;;;;;;;;;5098311;28;20062;-79
2023/01/30 06:47:45;;;;;;;49.97;5.40;;;;;;;;;;5087847;28;20396;-81
2023/01/30 06:50:12;;;;;;;35.03;5.13;;;;;;;;;;5090792;28;20495;-80
2023/01/30 06:52:42;;;;;;;37.53;6.80;;;;;;;;;;5083940;28;20056;-80
2023/01/30 06:55:09;;;;;;;31.08;5.63;;;;;;;;;;5088412;28;20035;-77
2023/01/30 06:57:35;;;;;;;38.17;3.80;;;;;;;;;;5093829;28;20512;-79
2023/01/30 07:00:01;;;;;;;28.55;4.95;;;;;;;;;;5101538;28;20040;-82
2023/01/30 07:02:29;;;;;;;36.17;5.75;;;;;;;;;;5089072;28;20043;-79
2023/01/30 07:04:55;;;;;;;38.95;8.02;;;;;;;;;;5083615;28;20154;-78
2023/01/30 07:07:21;;;;;;;33.13;4.85;;;;;;;;;;5087065;28;20028;-78
2023/01/30 07:09:47;;;;;;;43.28;5.80;;;;;;;;;;5090763;28;20060;-78
2023/01/30 07:12:13;;;;;;;34.72;4.93;;;;;;;;;;5086131;28;20020;-80
2023/01/30 07:14:39;;;;;;;40.92;4.90;;;;;;;;;;5089982;28;20035;-79
2023/01/30 07:17:05;;;;;;;42.00;6.07;;;;;;;;;;5091084;28;20156;-79
2023/01/30 07:19:31;;;;;;;40.20;9.27;;;;;;;;;;5098815;28;20024;-79
2023/01/30 07:21:57;;;;;;;35.92;5.30;;;;;;;;;;5089052;28;20063;-79
2023/01/30 07:24:23;;;;;;;46.58;6.15;;;;;;;;;;5103757;28;20028;-78
2023/01/30 07:26:49;;;;;;;32.05;5.07;;;;;;;;;;5085990;28;20081;-80
2023/01/30 07:29:15;;;;;;;42.33;6.60;;;;;;;;;;5086069;28;20079;-78
2023/01/30 07:31:41;;;;;;;33.13;5.38;;;;;;;;;;5085206;28;20067;-77
2023/01/30 07:34:07;;;;;;;33.67;9.75;;;;;;;;;;5090621;28;20106;-78
2023/01/30 07:36:33;;;;;;;29.60;6.05;;;;;;;;;;5086527;28;20129;-79
2023/01/30 07:39:03;;;;;;;40.83;5.57;;;;;;;;;;5083138;28;20113;-80
2023/01/30 07:41:29;;;;;;;31.48;5.38;;;;;;;;;;5091037;28;20225;-79
2023/01/30 07:43:55;;;;;;;29.33;5.80;;;;;;;;;;5090670;28;20039;-82
2023/01/30 07:46:20;;;;;;;34.47;4.95;;;;;;;;;;5090543;28;20024;-79
2023/01/30 07:48:47;;;;;;;42.88;6.00;;;;;;;;;;5102315;28;20040;-78
2023/01/30 07:51:13;;;;;;;37.30;5.57;;;;;;;;;;5108731;28;20035;-80
2023/01/30 07:53:39;;;;;;;38.95;5.65;;;;;;;;;;5091246;28;20126;-76
2023/01/30 07:56:08;;;;;;;32.30;5.28;;;;;;;;;;5089022;28;20079;-78
2023/01/30 07:58:35;;;;;;;39.50;7.03;;;;;;;;;;5109243;28;20418;-78
2023/01/30 08:01:01;;;;;;;33.25;6.63;;;;;;;;;;5090669;28;20029;-78
2023/01/30 08:03:27;;;;;;;50.20;7.25;;;;;;;;;;5090160;28;20450;-79
2023/01/30 08:05:53;;;;;;;32.38;4.20;;;;;;;;;;5092654;28;20090;-79
2023/01/30 08:08:19;;;;;;;39.47;6.05;;;;;;;;;;5088072;28;20188;-79
2023/01/30 08:10:49;;;;;;;34.00;7.07;;;;;;;;;;5092799;28;20136;-79
2023/01/30 08:13:15;;;;;;;39.90;5.30;;;;;;;;;;5091297;28;20032;-78
2023/01/30 08:15:41;;;;;;;34.50;6.22;;;;;;;;;;5093539;28;20077;-79
2023/01/30 08:18:07;;;;;;;37.85;4.60;;;;;;;;;;5089354;28;20085;-78
2023/01/30 08:20:33;;;;;;;39.33;5.60;;;;;;;;;;5089412;28;20024;-78
2023/01/30 08:23:01;;;;;;;40.10;5.15;;;;;;;;;;5108126;28;20063;-78
2023/01/30 08:25:27;;;;;;;47.60;6.03;;;;;;;;;;5095457;28;20032;-80
2023/01/30 08:27:53;;;;;;;39.53;6.32;;;;;;;;;;5075627;28;20106;-78
2023/01/30 08:30:20;;;;;;;30.50;4.38;;;;;;;;;;5094186;28;20077;-79
2023/01/30 08:32:46;;;;;;;33.42;5.82;;;;;;;;;;5089229;28;20032;-79
2023/01/30 08:35:12;;;;;;;33.45;6.78;;;;;;;;;;5090525;28;20086;-79
2023/01/30 08:37:41;;;;;;;34.08;6.35;;;;;;;;;;5086591;28;20043;-80
2023/01/30 08:40:08;;;;;;;41.13;5.53;;;;;;;;;;5093375;28;20036;-78
2023/01/30 08:42:34;;;;;;;34.53;5.40;;;;;;;;;;5089347;28;20047;-78
2023/01/30 08:45:00;;;;;;;33.10;4.88;;;;;;;;;;5092721;28;20032;-78
2023/01/30 08:47:26;;;;;;;43.25;6.07;;;;;;;;;;5088053;28;20067;-80
2023/01/30 08:49:52;;;;;;;43.85;7.05;;;;;;;;;;5092084;28;20036;-80
2023/01/30 08:52:21;;;;;;;37.22;6.78;;;;;;;;;;5104006;28;20024;-80
2023/01/30 08:54:47;;;;;;;42.75;6.18;;;;;;;;;;5087908;28;20039;-80
2023/01/30 08:57:13;;;;;;;39.20;4.88;;;;;;;;;;5104008;28;20040;-80
2023/01/30 08:59:40;;;;;;;37.53;5.82;;;;;;;;;;5089022;28;20030;-79
2023/01/30 09:02:08;;;;;;;30.67;5.75;;;;;;;;;;5099578;28;20413;-80
2023/01/30 09:04:34;;;;;;;28.00;5.30;;;;;;;;;;5088185;28;20623;-80
2023/01/30 09:07:00;;;;;;;29.05;5.40;;;;;;;;;;5091929;28;20048;-80
2023/01/30 09:09:28;;;;;;;32.42;5.32;;;;;;;;;;5084978;28;20032;-79
2023/01/30 09:11:54;;;;;;;38.45;6.63;;;;;;;;;;5090987;28;20032;-79
2023/01/30 09:14:20;;;;;;;40.10;5.63;;;;;;;;;;5092795;28;20035;-79
2023/01/30 09:16:47;;;;;;;28.88;4.40;;;;;;;;;;5087006;28;20519;-80
2023/01/30 09:19:13;;;;;;;43.22;5.35;;;;;;;;;;5095997;28;20083;-79
2023/01/30 09:21:39;;;;;;;30.75;6.25;;;;;;;;;;5093884;28;20479;-80
2023/01/30 09:24:05;;;;;;;34.08;6.43;;;;;;;;;;5091096;28;20032;-79
2023/01/30 09:26:31;;;;;;;40.53;7.10;;;;;;;;;;5089359;28;20519;-79
2023/01/30 09:28:57;;;;;;;28.92;6.30;;;;;;;;;;5096451;28;20040;-80
2023/01/30 09:31:23;;;;;;;27.85;5.55;;;;;;;;;;5097380;28;20032;-79
2023/01/30 09:33:50;;;;;;;46.72;6.03;;;;;;;;;;5087850;28;20089;-78
2023/01/30 09:36:16;;;;;;;34.35;7.40;;;;;;;;;;5102986;28;20110;-78
2023/01/30 09:38:42;;;;;;;50.28;7.63;;;;;;;;;;5089512;28;20589;-78
2023/01/30 09:41:28;;;;;;;34.67;6.40;;;;;;;;;;5101256;28;20355;-79
2023/01/30 09:44:14;;;;;;;39.10;5.78;;;;;;;;;;5057404;28;20126;-79
2023/01/30 09:46:47;;;;;;;25.50;5.38;;;;;;;;;;5093899;28;20028;-79
2023/01/30 09:49:19;;;;;;;33.58;5.40;;;;;;;;;;5106263;28;20036;-79
2023/01/30 09:51:54;;;;;;;39.63;6.63;;;;;;;;;;5087080;28;20035;-78
2023/01/30 09:54:23;;;;;;;32.83;6.95;;;;;;;;;;5091030;28;20046;-79
2023/01/30 09:56:55;;;;;;;36.28;5.43;;;;;;;;;;5089724;28;20024;-79
2023/01/30 09:59:21;;;;;;;;;;;;;;;;;;5098227;28;20477;-79
2023/01/30 10:01:54;;;;;;;33.55;6.40;;;;;;;;;;5087925;28;19939;-79
2023/01/30 10:04:37;;;;;;;39.13;6.18;;;;;;;;;;5107603;28;20103;-79
2023/01/30 10:07:21;;;;;;;38.58;8.80;;;;;;;;;;5094370;28;20123;-80
2023/01/30 10:09:55;;;;;;;36.20;5.85;;;;;;;;;;5085462;28;20120;-79
2023/01/30 10:12:26;;;;;;;32.17;6.35;;;;;;;;;;5082905;28;20028;-79
2023/01/30 10:15:00;;;;;;;31.52;6.32;;;;;;;;;;5097501;28;20448;-79
2023/01/30 10:17:33;;;;;;;33.47;6.57;;;;;;;;;;5092016;28;20126;-79
2023/01/30 10:20:05;;;;;;;32.33;4.75;;;;;;;;;;5090839;28;20115;-79
2023/01/30 10:22:58;;;;;;;28.63;4.72;;;;;;;;;;5090496;28;20032;-78
2023/01/30 10:25:27;;;;;;;37.08;5.20;;;;;;;;;;5088101;28;20036;-79
2023/01/30 10:27:55;;;;;;;39.90;6.43;;;;;;;;;;5086843;28;20043;-79
2023/01/30 10:30:22;;;;;;;33.65;6.88;;;;;;;;;;5089429;28;20256;-79
2023/01/30 10:33:01;;;;;;;34.42;6.50;;;;;;;;;;5107941;28;20035;-79
2023/01/30 10:35:30;;;;;;;38.45;6.47;;;;;;;;;;5095493;28;20077;-79
2023/01/30 10:38:06;;;;;;;40.20;6.53;;;;;;;;;;5089953;28;20032;-80
2023/01/30 10:40:32;;;;;;;37.05;6.28;;;;;;;;;;5094604;28;20032;-79
2023/01/30 10:43:06;;;;;;;38.50;6.63;;;;;;;;;;5115218;28;20015;-79
2023/01/30 10:45:44;;;;;;;36.58;4.88;;;;;;;;;;5087971;28;20069;-78
2023/01/30 10:48:18;;;;;;;39.50;5.20;;;;;;;;;;5094692;28;20036;-79
2023/01/30 10:50:44;;;;;;;32.40;6.93;;;;;;;;;;5094602;28;20081;-78
2023/01/30 10:53:16;;;;;;;24.30;4.30;;;;;;;;;;5077514;28;20078;-79
2023/01/30 10:55:48;;;;;;;21.95;6.05;;;;;;;;;;5095515;28;20077;-79
2023/01/30 10:58:25;;;;;;;28.58;4.95;;;;;;;;;;5093674;28;20032;-79
2023/01/30 11:00:51;;;;;;;18.58;4.03;;;;;;;;;;5099287;28;20039;-79
2023/01/30 11:03:23;;;;;;;15.32;2.90;;;;;;;;;;5102517;28;20032;-81
2023/01/30 11:05:51;;;;;;;15.68;2.25;;;;;;;;;;5081583;28;20035;-79
2023/01/30 11:08:22;;;;;;;19.33;6.43;;;;;;;;;;5083597;28;20044;-82
2023/01/30 11:10:48;;;;;;;15.93;3.97;;;;;;;;;;5092069;28;20353;-80
2023/01/30 11:13:17;;;;;;;18.00;4.22;;;;;;;;;;5084558;28;20020;-81
2023/01/30 11:15:45;;;;;;;21.23;4.10;;;;;;;;;;5085117;28;20073;-80
2023/01/30 11:18:11;;;;;;;20.65;3.08;;;;;;;;;;5096875;28;20024;-79
2023/01/30 11:20:42;;;;;;;21.25;4.47;;;;;;;;;;5092424;28;20027;-79
2023/01/30 11:23:28;;;;;;;25.40;4.50;;;;;;;;;;5093800;28;20051;-79
2023/01/30 11:25:56;;;;;;;24.35;4.10;;;;;;;;;;5081333;28;20037;-78
2023/01/30 11:28:22;;;;;;;30.52;6.22;;;;;;;;;;5093658;28;20119;-81
2023/01/30 11:30:50;;;;;;;31.25;5.05;;;;;;;;;;5098684;28;20043;-82
2023/01/30 11:33:20;;;;;;;28.58;5.50;;;;;;;;;;5107344;28;20040;-79
2023/01/30 11:35:53;;;;;;;23.63;4.60;;;;;;;;;;5103641;28;20110;-76
2023/01/30 11:38:20;;;;;;;12.77;2.03;;;;;;;;;;5100910;28;20397;-77
2023/01/30 11:40:46;;;;;;;8.70;2.03;;;;;;;;;;5091598;28;20084;-78
2023/01/30 11:43:14;;;;;;;11.15;1.88;;;;;;;;;;5092665;28;20158;-77
2023/01/30 11:45:49;;;;;;;15.57;2.88;;;;;;;;;;5093495;28;20485;-79
2023/01/30 11:48:18;;;;;;;11.18;2.22;;;;;;;;;;5073698;28;20032;-81
2023/01/30 11:50:46;;;;;;;11.95;3.75;;;;;;;;;;5091364;28;20024;-84
2023/01/30 11:53:27;;;;;;;19.92;2.55;;;;;;;;;;5096211;28;20031;-83
2023/01/30 11:56:03;;;;;;;17.17;2.63;;;;;;;;;;5095706;28;20034;-82
2023/01/30 11:58:33;;;;;;;22.73;3.55;;;;;;;;;;5082804;28;20502;-82
2023/01/30 12:00:59;;;;;;;19.15;3.33;;;;;;;;;;5096791;28;20527;-82
2023/01/30 12:03:28;;;;;;;24.15;3.65;;;;;;;;;;5093894;28;20111;-84
2023/01/30 12:05:55;;;;;;;18.52;4.30;;;;;;;;;;5080476;28;20025;-83
2023/01/30 12:08:22;;;;;;;50.63;4.90;;;;;;;;;;5088901;28;20103;-83
2023/01/30 12:10:53;;;;;;;27.80;4.20;;;;;;;;;;5087024;28;20028;-78
2023/01/30 12:15:53;;;;;;;21.67;3.38;;;;;;;;;;5018108;28;20053;-82
2023/01/30 12:18:19;;;;;;;22.38;5.07;;;;;;;;;;5029307;28;20029;-82
2023/01/30 12:20:54;;;;;;;17.48;3.30;;;;;;;;;;5029305;28;20600;-83
2023/01/30 12:23:23;;;;;;;22.08;3.50;;;;;;;;;;5031736;28;20088;-82
2023/01/30 12:26:05;;;;;;;18.63;4.13;;;;;;;;;;5007607;28;20033;-82
2023/01/30 12:28:39;;;;;;;18.38;2.78;;;;;;;;;;5042018;28;20080;-83
2023/01/30 12:31:32;;;;;;;28.35;3.95;;;;;;;;;;5035233;28;20033;-82
2023/01/30 12:33:58;;;;;;;25.40;4.40;;;;;;;;;;5029276;28;20045;-83
2023/01/30 12:36:31;;;;;;;24.88;3.53;;;;;;;;;;5027222;28;20378;-82
2023/01/30 12:39:09;;;;;;;19.10;2.70;;;;;;;;;;5019502;28;20033;-83
2023/01/30 12:41:39;;;;;;;17.88;2.88;;;;;;;;;;5027145;28;20247;-83
2023/01/30 12:44:24;;;;;;;17.95;2.45;;;;;;;;;;5031563;28;20037;-83
2023/01/30 12:46:55;;;;;;;22.80;4.18;;;;;;;;;;5028889;28;20508;-82
2023/01/30 12:49:31;;;;;;;20.93;3.37;;;;;;;;;;5026162;28;20022;-82
2023/01/30 12:52:03;;;;;;;21.27;3.45;;;;;;;;;;5026477;28;20032;-83
2023/01/30 12:54:32;;;;;;;26.23;3.90;;;;;;;;;;5031085;28;20083;-82
2023/01/30 12:57:13;;;;;;;25.15;3.50;;;;;;;;;;5028260;28;20041;-83
2023/01/30 12:59:47;;;;;;;31.73;5.20;;;;;;;;;;5023479;28;20489;-83
2023/01/30 13:02:29;;;;;;;22.17;3.47;;;;;;;;;;5031735;28;20492;-84
2023/01/30 13:04:55;;;;;;;22.98;4.07;;;;;;;;;;5051865;28;20041;-84
2023/01/30 13:07:32;;;;;;;28.50;5.43;;;;;;;;;;5031749;28;20033;-83
2023/01/30 13:09:58;;;;;;;22.38;3.80;;;;;;;;;;5010955;28;20034;-83
2023/01/30 13:12:27;;;;;;;23.80;4.35;;;;;;;;;;5028737;28;20096;-82
2023/01/30 13:15:02;;;;;;;30.50;6.20;;;;;;;;;;5030314;28;20402;-82
2023/01/30 13:17:34;;;;;;;33.55;5.82;;;;;;;;;;5026711;28;20033;-82
2023/01/30 13:20:20;;;;;;;27.77;6.70;;;;;;;;;;5029637;28;20394;-82
2023/01/30 13:22:52;;;;;;;36.30;7.10;;;;;;;;;;5029436;28;20045;-82
2023/01/30 13:25:34;;;;;;;36.03;5.32;;;;;;;;;;5029767;28;20802;-82
2023/01/30 13:28:03;;;;;;;36.58;6.95;;;;;;;;;;5027338;28;20128;-81
2023/01/30 13:30:30;;;;;;;31.67;5.20;;;;;;;;;;5029947;28;20425;-82
2023/01/30 13:33:00;;;;;;;35.35;6.40;;;;;;;;;;5029483;28;20060;-81
2023/01/30 13:35:41;;;;;;;38.78;5.95;;;;;;;;;;5025336;28;20033;-82
2023/01/30 13:38:09;;;;;;;35.10;5.07;;;;;;;;;;5029128;28;20061;-81
2023/01/30 13:40:38;;;;;;;28.25;5.43;;;;;;;;;;5030509;28;20080;-80
2023/01/30 13:43:08;;;;;;;40.40;6.75;;;;;;;;;;5010608;28;20116;-82
2023/01/30 13:45:36;;;;;;;36.67;6.88;;;;;;;;;;5029740;28;20030;-81
2023/01/30 13:48:14;;;;;;;41.10;7.65;;;;;;;;;;5028782;28;20087;-81
2023/01/30 13:50:59;;;;;;;34.55;7.38;;;;;;;;;;5029475;28;20111;-81
2023/01/30 13:53:34;;;;;;;39.22;5.75;;;;;;;;;;5028461;28;20040;-82
2023/01/30 13:56:09;;;;;;;38.95;7.65;;;;;;;;;;5029513;28;20040;-81
2023/01/30 13:58:55;;;;;;;27.30;6.22;;;;;;;;;;5028091;28;20059;-82
2023/01/30 14:01:23;;;;;;;42.42;7.20;;;;;;;;;;5021661;28;20034;-81
2023/01/30 14:03:49;;;;;;;38.92;5.93;;;;;;;;;;5028241;28;20080;-82
2023/01/30 14:06:21;;;;;;;33.63;6.38;;;;;;;;;;5029479;28;20040;-82
2023/01/30 14:08:47;;;;;;;39.20;6.80;;;;;;;;;;5027616;28;20537;-83
2023/01/30 14:11:28;;;;;;;37.85;6.93;;;;;;;;;;5032245;28;20125;-82
2023/01/30 14:13:58;;;;;;;31.92;6.13;;;;;;;;;;5026020;28;20073;-82
2023/01/30 14:16:24;;;;;;;41.72;7.40;;;;;;;;;;5028533;28;20033;-82
2023/01/30 14:18:50;;;;;;;32.15;5.65;;;;;;;;;;5030197;28;20041;-81
2023/01/30 14:21:22;;;;;;;38.70;6.05;;;;;;;;;;5035086;28;20034;-82
2023/01/30 14:23:48;;;;;;;;;;;;;;;;;;5031908;28;20029;-81
2023/01/30 14:26:14;;;;;;;32.85;5.93;;;;;;;;;;5031959;28;19923;-81
2023/01/30 14:28:44;;;;;;;34.13;6.72;;;;;;;;;;5031579;28;20509;-81
2023/01/30 14:31:11;;;;;;;37.30;5.68;;;;;;;;;;5027451;28;20040;-81
2023/01/30 14:33:50;;;;;;;39.47;6.78;;;;;;;;;;5031055;28;20486;-80
2023/01/30 14:36:16;;;;;;;33.15;5.35;;;;;;;;;;5019778;28;20030;-83
2023/01/30 14:38:44;;;;;;;34.45;6.43;;;;;;;;;;5032706;28;20029;-83
2023/01/30 14:41:24;;;;;;;33.40;5.47;;;;;;;;;;5030934;28;20031;-80
2023/01/30 14:43:50;;;;;;;37.50;7.70;;;;;;;;;;5028333;28;20673;-82
2023/01/30 14:46:19;;;;;;;56.08;14.32;;;;;;;;;;5026244;28;20026;-81
2023/01/30 14:48:55;;;;;;;37.72;6.93;;;;;;;;;;5033581;28;20219;-83